Time;durP1;ratioP1;P1;durP2;ratioP2;P2;SDS_P1;SDS_P2;PMS_P1;PMS_P2;Temp;Humidity;BMP_temperature;BMP_pressure;BME280_temperature;BME280_humidity;BME280_pressure;Samples;Min_cycle;Max_cycle;Signal;HPM_P1;HPM_P2
2022/06/02 00:02:21;;;;;;;1.37;1.27;;;24.40;58.20;;;;;;5083833;28;20455;-82
2022/06/02 00:05:00;;;;;;;1.20;1.00;;;24.40;58.20;;;;;;5095964;28;20848;-82
2022/06/02 00:07:37;;;;;;;1.40;1.17;;;24.40;58.20;;;;;;5095780;28;20865;-83
2022/06/02 00:10:11;;;;;;;1.20;0.97;;;24.40;58.20;;;;;;5095944;28;20436;-83
2022/06/02 00:12:47;;;;;;;1.20;1.10;;;24.40;58.10;;;;;;5095821;28;20444;-82
2022/06/02 00:15:23;;;;;;;1.30;1.10;;;24.40;58.20;;;;;;5095584;28;20953;-82
2022/06/02 00:17:58;;;;;;;1.00;0.80;;;24.40;58.10;;;;;;5089184;28;20491;-82
2022/06/02 00:20:30;;;;;;;1.33;1.23;;;24.40;58.20;;;;;;5078522;28;20436;-82
2022/06/02 00:23:11;;;;;;;1.10;1.00;;;24.40;58.20;;;;;;5088325;28;21050;-81
2022/06/02 00:25:46;;;;;;;1.10;1.00;;;24.40;58.10;;;;;;5075172;28;20440;-82
2022/06/02 00:28:30;;;;;;;1.10;1.00;;;24.40;58.10;;;;;;5075132;28;21022;-82
2022/06/02 00:31:03;;;;;;;1.83;1.20;;;24.40;58.10;;;;;;5075073;28;20526;-82
2022/06/02 00:33:35;;;;;;;1.30;1.10;;;24.40;58.10;;;;;;5089096;28;20934;-83
2022/06/02 00:36:09;;;;;;;1.10;1.00;;;24.40;58.10;;;;;;5095276;28;20440;-83
2022/06/02 00:38:40;;;;;;;1.83;1.20;;;24.40;58.00;;;;;;5082518;28;21012;-82
2022/06/02 00:41:21;;;;;;;2.27;1.20;;;24.40;58.00;;;;;;5076117;28;20440;-82
2022/06/02 00:44:09;;;;;;;1.43;1.10;;;24.40;58.00;;;;;;5075029;28;20816;-82
2022/06/02 00:46:55;;;;;;;1.03;0.93;;;24.40;58.00;;;;;;5074899;28;20447;-83
2022/06/02 00:49:31;;;;;;;1.10;1.00;;;24.40;58.00;;;;;;5075109;28;20527;-82
2022/06/02 00:52:27;;;;;;;1.10;1.00;;;24.40;58.10;;;;;;5074666;28;21070;-82
2022/06/02 00:58:05;;;;;;;1.70;1.00;;;24.40;58.00;;;;;;5074128;28;20931;-82
2022/06/02 01:00:39;;;;;;;1.30;1.03;;;24.40;58.00;;;;;;5075562;28;20502;-83
2022/06/02 01:03:10;;;;;;;1.37;1.00;;;24.40;58.00;;;;;;5074600;28;20441;-83
2022/06/02 01:06:06;;;;;;;1.23;1.13;;;24.40;58.00;;;;;;5074500;28;20437;-84
2022/06/02 01:08:51;;;;;;;1.30;1.17;;;24.40;58.00;;;;;;5078242;28;20571;-83
2022/06/02 01:11:27;;;;;;;1.30;1.10;;;24.40;58.00;;;;;;5075416;28;20440;-84
2022/06/02 01:14:11;;;;;;;1.07;0.93;;;24.30;57.90;;;;;;5089177;28;20448;-83
2022/06/02 01:16:44;;;;;;;1.20;1.10;;;24.40;57.90;;;;;;5094451;28;20439;-83
2022/06/02 01:19:46;;;;;;;1.10;1.00;;;24.40;57.90;;;;;;5094057;28;20436;-83
2022/06/02 01:22:48;;;;;;;1.00;0.90;;;24.40;57.90;;;;;;5074003;28;21031;-83
2022/06/02 01:25:28;;;;;;;1.10;1.00;;;24.40;57.90;;;;;;5048207;28;20445;-83
2022/06/02 01:28:25;;;;;;;1.20;0.90;;;24.30;57.90;;;;;;5074149;28;20484;-83
2022/06/02 01:30:59;;;;;;;1.33;1.23;;;24.30;57.90;;;;;;5063124;28;20444;-83
2022/06/02 01:33:36;;;;;;;1.40;1.17;;;24.30;57.90;;;;;;5073939;28;20441;-82
2022/06/02 01:36:13;;;;;;;1.10;1.00;;;24.30;57.90;;;;;;5073910;28;20449;-82
2022/06/02 01:38:51;;;;;;;1.17;1.00;;;24.30;57.90;;;;;;5073935;28;20436;-82
2022/06/02 01:41:24;;;;;;;1.27;1.17;;;24.40;58.50;;;;;;5073342;28;20441;-82
2022/06/02 01:44:02;;;;;;;1.20;1.10;;;24.30;57.90;;;;;;5073917;28;20445;-82
2022/06/02 01:46:43;;;;;;;1.47;1.37;;;24.30;57.80;;;;;;5073922;28;20436;-82
2022/06/02 01:49:33;;;;;;;1.23;1.10;;;24.40;57.90;;;;;;5073498;28;20828;-82
2022/06/02 01:52:12;;;;;;;1.07;0.93;;;24.40;57.80;;;;;;5073492;28;20513;-83
2022/06/02 01:54:50;;;;;;;1.10;1.00;;;24.30;57.80;;;;;;5075419;28;20436;-83
2022/06/02 01:57:34;;;;;;;1.23;1.13;;;24.30;57.80;;;;;;5075495;28;20453;-82
2022/06/02 02:00:08;;;;;;;1.30;1.20;;;24.30;57.70;;;;;;5092071;28;20444;-82
2022/06/02 02:02:48;;;;;;;1.97;1.10;;;24.30;57.80;;;;;;5073210;28;20441;-82
2022/06/02 02:05:30;;;;;;;1.20;1.10;;;24.30;57.70;;;;;;5073012;28;20463;-82
2022/06/02 02:08:42;;;;;;;1.10;1.00;;;24.40;57.70;;;;;;5073265;28;20483;-81
2022/06/02 02:11:28;;;;;;;1.47;1.23;;;24.30;57.70;;;;;;5031773;28;20487;-82
2022/06/02 02:14:05;;;;;;;1.27;1.17;;;24.30;57.80;;;;;;5085800;28;20966;-83
2022/06/02 02:16:47;;;;;;;1.30;1.20;;;24.30;57.80;;;;;;5093565;28;20435;-82
2022/06/02 02:19:26;;;;;;;1.10;1.00;;;24.30;57.70;;;;;;5093454;28;20468;-82
2022/06/02 02:22:00;;;;;;;1.10;1.00;;;24.30;57.70;;;;;;5073457;28;20456;-82
2022/06/02 02:24:40;;;;;;;1.53;1.20;;;24.30;57.70;;;;;;5072036;28;20797;-82
2022/06/02 02:27:12;;;;;;;1.20;1.10;;;24.30;57.70;;;;;;5073187;28;20437;-82
2022/06/02 02:29:44;;;;;;;1.20;1.00;;;24.30;57.70;;;;;;5073679;28;20491;-82
2022/06/02 02:32:21;;;;;;;1.40;1.10;;;24.30;57.70;;;;;;5093174;28;20443;-82
2022/06/02 02:34:57;;;;;;;1.50;1.40;;;24.30;57.70;;;;;;5093467;28;20440;-83
2022/06/02 02:37:32;;;;;;;2.13;1.20;;;24.30;57.70;;;;;;5093249;28;20447;-82
2022/06/02 02:40:09;;;;;;;1.37;1.27;;;24.30;57.60;;;;;;5092322;28;20439;-82
2022/06/02 02:42:41;;;;;;;1.50;1.40;;;24.30;57.70;;;;;;5073147;28;20437;-83
2022/06/02 02:45:23;;;;;;;1.10;1.00;;;24.30;57.60;;;;;;5073033;28;20440;-83
2022/06/02 02:47:55;;;;;;;1.50;1.40;;;24.30;57.60;;;;;;5079929;28;20471;-83
2022/06/02 02:50:29;;;;;;;1.30;1.20;;;24.30;57.60;;;;;;5089292;28;20449;-83
2022/06/02 02:53:02;;;;;;;1.23;1.13;;;24.30;57.60;;;;;;5080602;28;20443;-83
2022/06/02 02:55:33;;;;;;;1.30;1.20;;;24.30;57.60;;;;;;5093027;28;20447;-83
2022/06/02 02:58:09;;;;;;;1.23;1.13;;;24.30;57.60;;;;;;5093195;28;20450;-84
2022/06/02 03:00:42;;;;;;;1.30;1.20;;;24.30;57.60;;;;;;5089358;28;20540;-83
2022/06/02 03:03:16;;;;;;;1.77;1.10;;;24.30;57.60;;;;;;5073026;28;20440;-83
2022/06/02 03:06:04;;;;;;;1.40;1.20;;;24.30;57.60;;;;;;5072817;28;20444;-83
2022/06/02 03:08:40;;;;;;;1.20;1.10;;;24.30;58.10;;;;;;5072680;28;20485;-83
2022/06/02 03:11:26;;;;;;;1.10;1.00;;;24.20;57.50;;;;;;5087565;28;20489;-83
2022/06/02 03:14:02;;;;;;;1.20;1.10;;;24.20;57.50;;;;;;5093046;28;20451;-83
2022/06/02 03:16:30;;;;;;;1.60;1.27;;;24.20;57.50;;;;;;5093542;28;20930;-83
2022/06/02 03:19:10;;;;;;;1.30;1.20;;;24.20;57.50;;;;;;5096656;28;20464;-83
2022/06/02 03:21:50;;;;;;;1.40;1.30;;;24.20;57.40;;;;;;5086401;28;20457;-83
2022/06/02 03:24:46;;;;;;;1.40;1.07;;;24.20;57.50;;;;;;5076440;28;20443;-83
2022/06/02 03:27:27;;;;;;;1.40;1.30;;;24.20;57.50;;;;;;5076341;28;20437;-83
2022/06/02 03:30:10;;;;;;;1.27;1.17;;;24.20;57.50;;;;;;5076223;28;20484;-83
2022/06/02 03:32:57;;;;;;;1.93;1.20;;;24.20;57.50;;;;;;5077353;28;20429;-82
2022/06/02 03:35:30;;;;;;;1.20;1.10;;;24.20;57.40;;;;;;5076146;28;20436;-82
2022/06/02 03:38:09;;;;;;;2.13;1.13;;;24.20;57.50;;;;;;5084595;28;20435;-82
2022/06/02 03:40:55;;;;;;;1.00;0.90;;;24.20;57.50;;;;;;5095884;28;20439;-82
2022/06/02 03:43:29;;;;;;;1.20;1.10;;;24.20;57.40;;;;;;5075731;28;20433;-82
2022/06/02 03:46:10;;;;;;;1.10;1.00;;;24.20;57.50;;;;;;5076116;28;20531;-82
2022/06/02 03:48:49;;;;;;;1.40;1.30;;;24.20;57.50;;;;;;5075898;28;20499;-83
2022/06/02 03:51:27;;;;;;;1.13;1.03;;;24.20;57.50;;;;;;5075486;28;20975;-83
2022/06/02 03:54:26;;;;;;;1.10;1.00;;;24.20;57.50;;;;;;5075886;28;20459;-84
2022/06/02 03:57:08;;;;;;;1.33;1.20;;;24.20;57.40;;;;;;5065495;28;20476;-83
2022/06/02 04:00:07;;;;;;;1.47;1.37;;;24.20;57.50;;;;;;5075731;28;20451;-83
2022/06/02 04:02:41;;;;;;;1.40;1.27;;;24.20;57.50;;;;;;5075477;28;20449;-83
2022/06/02 04:05:20;;;;;;;1.23;1.13;;;24.20;57.50;;;;;;5075757;28;20441;-83
2022/06/02 04:07:59;;;;;;;1.23;1.13;;;24.20;57.50;;;;;;5075641;28;20452;-83
2022/06/02 04:10:37;;;;;;;1.40;1.30;;;24.20;57.50;;;;;;5075516;28;20447;-83
2022/06/02 04:13:38;;;;;;;1.30;1.00;;;24.20;57.50;;;;;;5075077;28;20494;-83
2022/06/02 04:16:40;;;;;;;1.33;1.23;;;24.20;57.50;;;;;;5075385;28;20451;-81
2022/06/02 04:22:23;;;;;;;1.27;1.17;;;24.20;57.50;;;;;;5074971;28;20464;-82
2022/06/02 04:25:00;;;;;;;1.43;1.33;;;24.10;57.40;;;;;;5075407;28;20927;-83
2022/06/02 04:27:36;;;;;;;1.20;1.10;;;24.10;57.40;;;;;;5074531;28;20836;-83
2022/06/02 04:30:15;;;;;;;1.30;1.20;;;24.10;57.40;;;;;;5075092;28;20625;-82
2022/06/02 04:32:48;;;;;;;1.20;1.10;;;24.10;57.40;;;;;;5074448;28;20445;-82
2022/06/02 04:35:39;;;;;;;1.30;1.20;;;24.10;57.40;;;;;;5075107;28;20441;-82
2022/06/02 04:38:16;;;;;;;1.27;1.17;;;24.20;57.40;;;;;;5075019;28;20540;-82
2022/06/02 04:40:52;;;;;;;1.20;1.10;;;24.10;57.40;;;;;;5075036;28;20444;-82
2022/06/02 04:43:27;;;;;;;1.10;1.00;;;24.10;57.40;;;;;;5074613;28;20436;-83
2022/06/02 04:46:07;;;;;;;1.30;1.20;;;24.10;58.00;;;;;;5074847;28;20471;-82
2022/06/02 04:48:40;;;;;;;1.23;1.10;;;24.20;57.50;;;;;;5074776;28;20476;-82
2022/06/02 04:51:18;;;;;;;1.23;1.13;;;24.10;57.40;;;;;;5074180;28;20472;-82
2022/06/02 04:53:56;;;;;;;1.10;1.00;;;24.10;57.40;;;;;;5074731;28;20440;-83
2022/06/02 04:56:30;;;;;;;1.20;1.00;;;24.10;57.40;;;;;;5074648;28;20433;-83
2022/06/02 04:59:07;;;;;;;1.40;1.30;;;24.10;57.50;;;;;;5074644;28;20518;-83
2022/06/02 05:01:44;;;;;;;1.43;1.20;;;24.10;57.40;;;;;;5073801;28;20536;-84
2022/06/02 05:04:23;;;;;;;1.30;1.17;;;24.10;57.40;;;;;;5073504;28;20445;-83
2022/06/02 05:06:57;;;;;;;1.70;1.30;;;24.10;57.60;;;;;;5074602;28;20535;-83
2022/06/02 05:09:31;;;;;;;1.87;1.67;;;24.10;57.70;;;;;;5072987;28;20483;-82
2022/06/02 05:12:12;;;;;;;1.80;1.23;;;24.00;57.60;;;;;;5074408;28;20449;-83
2022/06/02 05:14:46;;;;;;;2.37;1.33;;;24.00;57.70;;;;;;5074428;28;20443;-84
2022/06/02 05:17:48;;;;;;;6.07;5.57;;;24.00;57.80;;;;;;5074336;28;20479;-83
2022/06/02 05:20:33;;;;;;;6.30;5.80;;;24.00;57.80;;;;;;5074086;28;20464;-83
2022/06/02 05:23:29;;;;;;;3.87;3.67;;;23.90;58.00;;;;;;5083249;28;20452;-83
2022/06/02 05:26:28;;;;;;;3.53;3.20;;;23.80;57.90;;;;;;5094251;28;20436;-83
2022/06/02 05:29:21;;;;;;;1.80;1.70;;;23.80;58.00;;;;;;5092451;28;20479;-83
2022/06/02 05:32:13;;;;;;;2.87;1.77;;;23.90;58.00;;;;;;5094365;28;20436;-82
2022/06/02 05:35:16;;;;;;;4.10;1.83;;;23.90;58.00;;;;;;5094305;28;20436;-83
2022/06/02 05:38:01;;;;;;;1.83;1.73;;;24.00;58.10;;;;;;5094217;28;20436;-82
2022/06/02 05:40:35;;;;;;;4.30;4.00;;;24.00;58.10;;;;;;5091481;28;20447;-82
2022/06/02 05:43:17;;;;;;;5.70;2.60;;;23.90;58.40;;;;;;5094120;28;20432;-83
2022/06/02 05:46:03;;;;;;;2.63;1.90;;;23.90;58.20;;;;;;5094010;28;20450;-82
2022/06/02 05:48:44;;;;;;;2.27;1.87;;;23.90;58.20;;;;;;5093911;28;20432;-82
2022/06/02 05:51:21;;;;;;;2.90;2.00;;;23.90;58.20;;;;;;5092070;28;20467;-82
2022/06/02 05:53:59;;;;;;;2.13;1.73;;;23.90;58.40;;;;;;5093982;28;20431;-82
2022/06/02 05:56:35;;;;;;;2.50;1.60;;;24.00;58.50;;;;;;5093773;28;20439;-82
2022/06/02 05:59:32;;;;;;;1.70;1.60;;;24.00;58.60;;;;;;5093875;28;20435;-82
2022/06/02 06:02:19;;;;;;;1.90;1.80;;;24.00;58.60;;;;;;5093676;28;20935;-83
2022/06/02 06:05:02;;;;;;;1.70;1.60;;;24.00;58.70;;;;;;5092938;28;20439;-83
2022/06/02 06:07:48;;;;;;;1.53;1.40;;;24.00;58.80;;;;;;5091814;28;20523;-83
2022/06/02 06:10:23;;;;;;;2.03;1.60;;;24.00;58.80;;;;;;5091757;28;20480;-82
2022/06/02 06:13:11;;;;;;;1.60;1.50;;;24.00;58.60;;;;;;5094353;28;20439;-82
2022/06/02 06:15:49;;;;;;;1.60;1.50;;;24.10;58.60;;;;;;5093865;28;20440;-83
2022/06/02 06:18:31;;;;;;;1.60;1.50;;;24.00;58.70;;;;;;5093297;28;20485;-81
2022/06/02 06:21:14;;;;;;;1.80;1.70;;;24.00;58.70;;;;;;5093183;28;20462;-80
2022/06/02 06:24:07;;;;;;;1.70;1.60;;;24.10;58.80;;;;;;5081634;28;20443;-82
2022/06/02 06:26:41;;;;;;;1.60;1.40;;;24.10;58.70;;;;;;5072706;28;20449;-82
2022/06/02 06:29:21;;;;;;;1.40;1.30;;;24.10;58.70;;;;;;5072721;28;20476;-82
2022/06/02 06:31:59;;;;;;;2.23;1.53;;;24.10;58.60;;;;;;5072700;28;20451;-82
2022/06/02 06:34:37;;;;;;;1.60;1.47;;;24.10;58.60;;;;;;5089755;28;20470;-82
2022/06/02 06:37:43;;;;;;;1.93;1.60;;;24.10;58.70;;;;;;5092938;28;20462;-82
2022/06/02 06:40:20;;;;;;;1.60;1.50;;;24.10;58.60;;;;;;5030382;28;20483;-85
2022/06/02 06:43:10;;;;;;;2.60;1.97;;;24.10;58.60;;;;;;5082803;28;20442;-84
2022/06/02 06:45:44;;;;;;;1.50;1.40;;;24.20;58.70;;;;;;5093240;28;20845;-82
2022/06/02 06:48:18;;;;;;;3.10;1.80;;;24.20;58.70;;;;;;5091282;28;21000;-81
2022/06/02 06:50:52;;;;;;;1.43;1.33;;;24.20;58.70;;;;;;5093921;28;20517;-82
2022/06/02 06:53:30;;;;;;;1.20;1.10;;;24.20;58.60;;;;;;5096968;28;20501;-82
2022/06/02 06:56:06;;;;;;;1.50;1.40;;;24.20;58.40;;;;;;5097262;28;20440;-82
2022/06/02 06:58:46;;;;;;;3.50;3.20;;;24.20;58.30;;;;;;5096197;28;20443;-85
2022/06/02 07:01:25;;;;;;;3.47;3.27;;;24.20;58.80;;;;;;5095501;28;20687;-87
2022/06/02 07:04:01;;;;;;;6.30;3.90;;;24.10;58.70;;;;;;5095030;28;20439;-85
2022/06/02 07:06:35;;;;;;;3.33;3.03;;;24.10;58.70;;;;;;5089522;28;20459;-84
2022/06/02 07:09:10;;;;;;;3.57;2.23;;;24.10;58.60;;;;;;5084164;28;20556;-85
2022/06/02 07:14:41;;;;;;;2.10;1.53;;;24.10;58.70;;;;;;5083533;28;20488;-90
2022/06/02 07:17:15;;;;;;;3.57;1.30;;;24.10;58.70;;;;;;5081101;28;20942;-87
2022/06/02 07:19:50;;;;;;;3.57;3.20;;;24.10;58.60;;;;;;5076639;28;20456;-86
2022/06/02 07:22:24;;;;;;;3.20;2.73;;;24.10;58.40;;;;;;5076465;28;20432;-87
2022/06/02 07:24:58;;;;;;;3.70;3.40;;;24.10;58.30;;;;;;5076579;28;20441;-86
2022/06/02 07:27:34;;;;;;;3.43;2.20;;;24.10;58.40;;;;;;5076685;28;20962;-87
2022/06/02 07:30:25;;;;;;;3.00;2.00;;;24.10;58.40;;;;;;5076898;28;20484;-87
2022/06/02 07:33:18;;;;;;;1.47;1.30;;;24.10;58.40;;;;;;5076497;28;20476;-87
2022/06/02 07:36:34;;;;;;;2.50;2.17;;;24.10;58.40;;;;;;5076744;28;20425;-87
2022/06/02 07:39:22;;;;;;;1.90;1.80;;;24.10;58.60;;;;;;5034249;28;20446;-86
2022/06/02 07:42:02;;;;;;;3.27;2.00;;;24.00;58.80;;;;;;5034457;28;20435;-93
2022/06/02 07:44:47;;;;;;;1.57;1.30;;;24.10;58.60;;;;;;5062499;28;20436;-82
2022/06/02 07:47:31;;;;;;;1.70;1.50;;;24.10;58.40;;;;;;5076153;28;20441;-82
2022/06/02 07:50:07;;;;;;;2.17;1.33;;;24.10;58.30;;;;;;5077382;28;22178;-80
2022/06/02 07:52:44;;;;;;;2.33;1.90;;;24.10;58.30;;;;;;5076130;28;20444;-81
2022/06/02 07:55:24;;;;;;;1.60;1.50;;;24.20;58.30;;;;;;5090192;28;20444;-81
2022/06/02 07:57:58;;;;;;;1.83;1.40;;;24.20;58.30;;;;;;5095864;28;20444;-81
2022/06/02 08:00:31;;;;;;;2.13;1.53;;;24.20;58.20;;;;;;5095937;28;20467;-81
2022/06/02 08:03:20;;;;;;;2.00;1.23;;;24.20;58.20;;;;;;5083812;28;20962;-80
2022/06/02 08:05:55;;;;;;;1.30;1.20;;;24.30;58.20;;;;;;5075760;28;20432;-83
2022/06/02 08:08:30;;;;;;;2.13;1.63;;;24.30;58.30;;;;;;5078261;28;20439;-88
2022/06/02 08:11:21;;;;;;;1.43;1.30;;;24.40;58.50;;;;;;5085833;28;20569;-84
2022/06/02 08:13:54;;;;;;;2.07;1.33;;;24.40;59.00;;;;;;5086887;28;20451;-84
2022/06/02 08:16:28;;;;;;;2.80;1.43;;;24.40;58.50;;;;;;5079812;28;20448;-88
2022/06/02 08:19:11;;;;;;;2.43;1.20;;;24.40;58.60;;;;;;5075367;28;20472;-88
2022/06/02 08:21:43;;;;;;;1.83;1.73;;;24.40;58.60;;;;;;5076284;28;20444;-87
2022/06/02 08:24:45;;;;;;;1.83;1.00;;;24.40;58.60;;;;;;5076750;28;20429;-84
2022/06/02 08:27:34;;;;;;;2.23;1.80;;;24.50;58.70;;;;;;5079305;28;20444;-87
2022/06/02 08:30:09;;;;;;;1.40;1.30;;;24.40;58.70;;;;;;5093542;28;20476;-81
2022/06/02 08:32:59;;;;;;;1.20;1.10;;;24.40;58.70;;;;;;5095509;28;20809;-82
2022/06/02 08:35:29;;;;;;;1.47;1.37;;;24.50;58.60;;;;;;5092307;28;20433;-90
2022/06/02 08:38:11;;;;;;;1.40;1.17;;;24.40;58.70;;;;;;5074794;28;20449;-85
2022/06/02 08:41:27;;;;;;;1.90;1.20;;;24.50;58.60;;;;;;5077846;28;20437;-84
2022/06/02 08:44:09;;;;;;;1.57;1.47;;;24.40;58.40;;;;;;5087316;28;20959;-84
2022/06/02 08:47:12;;;;;;;2.20;1.23;;;24.40;58.40;;;;;;5087514;28;20436;-83
2022/06/02 08:50:09;;;;;;;2.00;1.47;;;24.40;58.30;;;;;;5094176;28;20475;-83
2022/06/02 08:53:16;;;;;;;1.50;1.20;;;24.40;58.40;;;;;;5095119;28;20455;-83
2022/06/02 08:56:07;;;;;;;1.47;1.20;;;24.50;58.50;;;;;;5095321;28;20443;-83
2022/06/02 08:59:04;;;;;;;1.50;1.40;;;24.50;58.60;;;;;;5094043;28;20804;-82
2022/06/02 09:01:49;;;;;;;1.70;1.00;;;24.60;58.60;;;;;;5059994;28;20452;-83
2022/06/02 09:04:48;;;;;;;1.40;1.30;;;24.60;58.70;;;;;;5093739;28;20444;-83
2022/06/02 09:07:51;;;;;;;1.10;1.00;;;24.60;58.60;;;;;;5093419;28;20440;-82
2022/06/02 09:10:41;;;;;;;1.30;1.17;;;24.60;58.70;;;;;;5094452;28;20479;-82
2022/06/02 09:13:46;;;;;;;1.30;1.00;;;24.70;58.70;;;;;;5094315;28;20455;-83
2022/06/02 09:16:23;;;;;;;1.77;1.10;;;24.70;58.60;;;;;;5081743;28;20447;-84
2022/06/02 09:19:13;;;;;;;1.20;1.10;;;24.70;58.60;;;;;;5094387;28;20510;-82
2022/06/02 09:22:05;;;;;;;1.30;1.20;;;24.70;58.50;;;;;;5094847;28;20950;-82
2022/06/02 09:24:40;;;;;;;1.57;1.10;;;24.80;58.60;;;;;;5094595;28;20510;-82
2022/06/02 09:27:43;;;;;;;2.07;1.13;;;24.80;58.50;;;;;;5094613;28;20844;-83
2022/06/02 09:30:16;;;;;;;3.10;0.97;;;24.80;58.50;;;;;;5094235;28;20502;-82
2022/06/02 09:33:00;;;;;;;1.43;1.17;;;24.80;58.50;;;;;;5093374;28;20455;-83
2022/06/02 09:35:34;;;;;;;1.17;1.03;;;24.80;58.40;;;;;;5092752;28;20448;-83
2022/06/02 09:38:41;;;;;;;1.53;0.93;;;24.90;58.50;;;;;;5093218;28;20446;-83
2022/06/02 09:41:30;;;;;;;4.60;1.20;;;24.90;58.40;;;;;;5083249;28;20452;-84
2022/06/02 09:44:11;;;;;;;1.40;1.20;;;24.90;58.40;;;;;;5093336;28;20447;-85
2022/06/02 09:47:18;;;;;;;1.73;1.30;;;24.90;58.40;;;;;;5093811;28;20794;-82
2022/06/02 09:50:24;;;;;;;1.67;1.20;;;25.00;58.50;;;;;;5088702;28;20498;-82
2022/06/02 09:53:11;;;;;;;1.53;1.43;;;25.00;58.40;;;;;;5093981;28;20440;-82
2022/06/02 09:55:40;;;;;;;1.20;1.10;;;25.00;58.40;;;;;;5094304;28;20996;-83
2022/06/02 09:58:28;;;;;;;1.30;1.20;;;24.90;58.30;;;;;;5093975;28;20459;-81
2022/06/02 10:01:14;;;;;;;1.37;0.90;;;25.00;58.30;;;;;;5093828;28;20436;-87
2022/06/02 10:04:13;;;;;;;2.63;1.30;;;25.00;58.30;;;;;;5093232;28;20873;-83
2022/06/02 10:07:11;;;;;;;1.27;0.93;;;24.90;58.20;;;;;;5068838;28;20444;-80
2022/06/02 10:10:09;;;;;;;1.50;1.20;;;24.90;58.00;;;;;;5093472;28;20792;-81
2022/06/02 10:12:58;;;;;;;1.40;0.90;;;24.90;57.80;;;;;;5077993;28;20451;-83
2022/06/02 10:15:41;;;;;;;1.93;1.30;;;24.90;57.70;;;;;;5093444;28;20447;-81
2022/06/02 10:18:28;;;;;;;1.43;1.20;;;24.90;57.80;;;;;;5093184;28;20472;-83
2022/06/02 10:21:08;;;;;;;3.63;1.20;;;24.90;58.00;;;;;;5092838;28;20446;-79
2022/06/02 10:24:11;;;;;;;3.47;1.20;;;25.00;58.10;;;;;;5096013;28;21020;-81
2022/06/02 10:26:50;;;;;;;4.80;1.27;;;24.90;57.40;;;;;;5093036;28;20455;-83
2022/06/02 10:29:56;;;;;;;1.73;1.40;;;24.90;57.10;;;;;;5092978;28;20466;-83
2022/06/02 10:32:58;;;;;;;4.43;1.53;;;24.90;56.80;;;;;;5092966;28;20537;-83
2022/06/02 10:36:17;;;;;;;2.30;1.10;;;24.90;56.90;;;;;;5067233;28;20522;-86
2022/06/02 10:38:57;;;;;;;1.20;1.10;;;24.90;57.00;;;;;;5031025;28;20808;-83
2022/06/02 10:41:46;;;;;;;1.50;1.40;;;24.90;56.80;;;;;;5031249;28;20435;-83
2022/06/02 10:44:19;;;;;;;1.10;1.00;;;24.90;56.80;;;;;;5080988;28;20439;-82
2022/06/02 10:47:13;;;;;;;1.07;0.90;;;24.80;56.80;;;;;;5093294;28;20542;-83
2022/06/02 10:49:49;;;;;;;4.80;1.10;;;24.80;56.80;;;;;;5092775;28;20452;-85
2022/06/02 10:52:54;;;;;;;1.00;0.90;;;24.90;56.80;;;;;;5092958;28;20447;-83
2022/06/02 10:55:39;;;;;;;2.43;1.27;;;24.90;56.80;;;;;;5093862;28;20890;-82
2022/06/02 10:58:42;;;;;;;1.23;1.00;;;24.90;56.90;;;;;;5093358;28;20470;-84
2022/06/02 11:01:35;;;;;;;1.40;1.30;;;24.90;56.90;;;;;;5093342;28;20446;-83
2022/06/02 11:04:35;;;;;;;1.20;1.10;;;24.90;56.80;;;;;;5093494;28;20527;-86
2022/06/02 11:07:40;;;;;;;1.27;1.10;;;24.90;56.90;;;;;;5093479;28;20806;-84
2022/06/02 11:10:24;;;;;;;3.57;0.97;;;24.90;57.00;;;;;;5094439;28;20467;-85
2022/06/02 11:13:27;;;;;;;1.17;1.07;;;24.90;57.10;;;;;;5092910;28;20454;-85
2022/06/02 11:16:51;;;;;;;2.70;1.10;;;24.90;56.80;;;;;;5092906;28;20439;-86
2022/06/02 11:19:50;;;;;;;1.17;1.07;;;24.90;56.90;;;;;;5092835;28;20479;-85
2022/06/02 11:22:40;;;;;;;1.20;1.10;;;24.90;57.00;;;;;;5082840;28;20451;-85
2022/06/02 11:25:36;;;;;;;2.80;1.10;;;24.90;57.10;;;;;;5093008;28;20431;-85
2022/06/02 11:28:45;;;;;;;1.57;1.00;;;25.00;57.20;;;;;;5059474;28;20466;-85
2022/06/02 11:31:39;;;;;;;1.60;1.00;;;25.00;57.10;;;;;;5070947;28;20480;-85
2022/06/02 11:34:31;;;;;;;1.10;1.00;;;24.90;57.00;;;;;;5092965;28;20448;-84
2022/06/02 11:37:44;;;;;;;1.50;1.00;;;24.90;57.00;;;;;;5093252;28;20424;-85
2022/06/02 11:40:29;;;;;;;1.20;1.03;;;24.90;57.00;;;;;;5096556;28;20440;-85
2022/06/02 11:43:05;;;;;;;1.40;1.10;;;24.90;57.00;;;;;;5096491;28;20444;-85
2022/06/02 11:45:57;;;;;;;2.37;1.53;;;24.80;56.90;;;;;;5096430;28;20454;-85
2022/06/02 11:48:36;;;;;;;1.30;1.00;;;24.90;56.90;;;;;;5085956;28;20444;-85
2022/06/02 11:51:29;;;;;;;1.20;1.10;;;25.00;56.90;;;;;;5096345;28;20848;-85
2022/06/02 11:54:41;;;;;;;1.00;0.90;;;24.90;56.70;;;;;;5096105;28;20453;-85
2022/06/02 11:57:34;;;;;;;1.20;0.90;;;24.90;56.70;;;;;;5059477;28;20440;-85
2022/06/02 12:00:48;;;;;;;1.20;1.10;;;24.90;56.60;;;;;;5095996;28;20446;-85
2022/06/02 12:03:57;;;;;;;1.20;1.10;;;24.90;56.60;;;;;;5095517;28;20451;-85
2022/06/02 12:06:54;;;;;;;1.47;0.90;;;24.90;56.60;;;;;;5063499;28;20451;-85
2022/06/02 12:09:54;;;;;;;1.10;1.00;;;24.90;56.70;;;;;;5069152;28;20483;-85
2022/06/02 12:12:59;;;;;;;1.00;0.83;;;24.90;56.80;;;;;;5095969;28;20491;-85
2022/06/02 12:16:03;;;;;;;1.10;1.00;;;24.90;56.60;;;;;;5096333;28;20424;-85
2022/06/02 12:18:38;;;;;;;1.20;1.10;;;24.90;56.60;;;;;;5095881;28;20851;-85
2022/06/02 12:21:34;;;;;;;1.50;1.30;;;24.90;56.80;;;;;;5094913;28;20436;-85
2022/06/02 12:24:33;;;;;;;1.23;0.87;;;25.00;56.70;;;;;;5096087;28;20439;-85
2022/06/02 12:27:29;;;;;;;2.47;1.00;;;25.00;56.60;;;;;;5091298;28;20451;-85
2022/06/02 12:30:24;;;;;;;1.00;0.90;;;25.00;56.60;;;;;;5095539;28;20440;-85
2022/06/02 12:33:22;;;;;;;1.40;1.13;;;25.00;56.70;;;;;;5095566;28;20448;-85
2022/06/02 12:36:31;;;;;;;1.10;1.00;;;25.00;56.80;;;;;;5095678;28;20436;-85
2022/06/02 12:39:27;;;;;;;1.10;0.90;;;25.00;56.70;;;;;;5094626;28;20444;-85
2022/06/02 12:42:36;;;;;;;4.03;1.07;;;25.00;56.50;;;;;;5095358;28;20448;-85
2022/06/02 12:45:35;;;;;;;1.10;0.80;;;25.00;56.60;;;;;;5095086;28;20493;-85
2022/06/02 12:48:37;;;;;;;1.10;1.00;;;24.90;56.50;;;;;;5094921;28;20440;-85
2022/06/02 12:51:19;;;;;;;1.37;0.93;;;25.00;56.50;;;;;;5092709;28;20482;-85
2022/06/02 12:54:11;;;;;;;1.20;1.00;;;25.00;56.50;;;;;;5095145;28;20459;-87
2022/06/02 13:39:03;;;;;;;1.43;1.13;;;24.70;54.20;;;;;;5114219;28;20415;-83
2022/06/02 13:41:47;;;;;;;1.60;1.00;;;24.80;55.50;;;;;;5114620;28;20446;-84
2022/06/02 13:44:42;;;;;;;2.00;0.90;;;24.90;56.00;;;;;;5114326;28;20439;-83
2022/06/02 13:47:57;;;;;;;1.17;0.83;;;25.00;56.20;;;;;;5114249;28;20443;-83
2022/06/02 13:51:08;;;;;;;2.67;1.10;;;25.00;56.20;;;;;;5068673;28;20933;-83
2022/06/02 14:00:04;;;;;;;3.93;1.20;;;25.00;56.50;;;;;;5118846;28;20917;-85
2022/06/02 14:02:57;;;;;;;2.23;1.10;;;25.10;56.60;;;;;;5113756;28;20431;-86
2022/06/02 14:05:41;;;;;;;1.20;1.10;;;25.00;55.70;;;;;;5113936;28;20879;-86
2022/06/02 14:08:43;;;;;;;1.87;1.20;;;25.00;55.50;;;;;;5114140;28;20443;-85
2022/06/02 14:11:24;;;;;;;7.87;1.23;;;25.00;55.30;;;;;;5111377;28;20474;-86
2022/06/02 14:14:05;;;;;;;1.93;0.97;;;25.10;55.40;;;;;;5114329;28;20431;-86
2022/06/02 14:16:43;;;;;;;1.63;1.00;;;25.00;55.30;;;;;;5113941;28;20429;-85
2022/06/02 14:19:32;;;;;;;4.90;1.10;;;25.10;55.50;;;;;;5099771;28;20456;-86
2022/06/02 14:22:12;;;;;;;3.10;0.93;;;25.00;55.50;;;;;;5072958;28;20494;-86
2022/06/02 16:12:25;;;;;;;1.10;0.90;;;24.80;55.30;;;;;;5131604;27;20505;-87
2022/06/02 16:15:33;;;;;;;2.57;1.00;;;24.80;55.30;;;;;;5096186;28;20505;-84
2022/06/02 16:18:35;;;;;;;2.27;0.80;;;24.80;55.40;;;;;;5095067;28;20444;-84
2022/06/02 16:21:37;;;;;;;1.00;0.90;;;24.80;55.30;;;;;;5076589;28;20431;-84
2022/06/02 16:24:27;;;;;;;1.30;0.97;;;24.80;55.20;;;;;;5094311;28;20439;-84
2022/06/02 16:27:23;;;;;;;1.13;0.93;;;24.80;55.20;;;;;;5076938;28;20464;-85
2022/06/02 16:30:16;;;;;;;1.87;0.90;;;24.90;55.20;;;;;;5095269;28;20447;-84
2022/06/02 16:33:11;;;;;;;2.60;0.80;;;24.90;55.20;;;;;;5092016;28;20506;-85
2022/06/02 16:35:58;;;;;;;1.00;0.80;;;24.80;55.20;;;;;;5081539;28;20451;-84
2022/06/02 16:38:31;;;;;;;1.10;0.90;;;24.90;55.30;;;;;;5095129;28;20435;-84
2022/06/02 16:41:16;;;;;;;1.00;0.80;;;24.80;55.10;;;;;;5095203;28;20435;-84
2022/06/02 16:44:13;;;;;;;1.00;0.80;;;25.00;55.30;;;;;;5094687;28;20458;-84
2022/06/02 16:47:11;;;;;;;1.13;0.97;;;24.90;55.40;;;;;;5077081;28;20436;-84
2022/06/02 16:49:59;;;;;;;0.90;0.70;;;24.90;55.30;;;;;;5095144;28;20455;-84
2022/06/02 16:53:00;;;;;;;1.03;0.90;;;24.90;55.40;;;;;;5094944;28;20487;-93
2022/06/02 16:55:55;;;;;;;1.00;0.80;;;24.90;55.40;;;;;;5095550;28;20455;-83
2022/06/02 16:58:41;;;;;;;1.00;0.80;;;24.90;55.50;;;;;;5104613;28;20441;-83
2022/06/02 17:01:33;;;;;;;1.20;1.10;;;24.90;55.50;;;;;;5114433;28;20437;-84
2022/06/02 17:04:39;;;;;;;1.00;0.83;;;24.90;55.50;;;;;;5093621;28;20479;-84
2022/06/02 17:07:13;;;;;;;1.40;1.20;;;24.90;55.50;;;;;;5080393;28;20431;-83
2022/06/02 17:10:09;;;;;;;1.00;0.90;;;24.80;55.50;;;;;;5107155;28;20458;-83